x

Point Arguello, Ca (ptgc1) Weather Station

12:00pm - Fri 24th Nov 2017 All times are PST. -8 hours from GMT.

  • Wind
    16mph, 20mph gusts
  • Air Temp 63°f
  • Sea Pressure 1014.4mb
  • Point Arguello, Ca
  • Point Arguello, Ca

More Historic Weather Station data

Upgrade to MSW Pro to gain access to the past 30 days of data for over 8000 Wavebouys and Weather Stations around the globe.

Join

Comparision Forecast

View Surf forecast
   
Fri 11/24 12:00pm 16 20 mph 1014.4mb 63f
11:00am 15 17 mph 1015.3mb 64f
10:00am 17 18 mph 1015.7mb 63f
9:00am 18 20 mph 1015.1mb 62f
8:00am 23 24 mph 1014.6mb 65f
7:00am 29 32 mph 1014.5mb 63f
6:00am 26 30 mph 1013.7mb 67f
5:00am 25 30 mph 1013.5mb 65f
4:00am 24 28 mph 1013.9mb 66f
3:00am 23 28 mph 1014.3mb 64f
2:00am 17 18 mph 1014.5mb 64f
1:00am 21 22 mph 1014.5mb 65f
12:00am 23 24 mph 1014.6mb 59f
Thu 11/23 11:00pm 18 20 mph 1015mb 60f
10:00pm 21 23 mph 1015.1mb 61f
9:00pm 18 20 mph 1015.4mb 60f
8:00pm 22 24 mph 1015.1mb 63f
7:00pm 20 21 mph 1015.4mb 63f
6:00pm 23 25 mph 1014.7mb 64f
5:00pm 20 23 mph 1015.2mb 63f
4:00pm 21 23 mph 1015.1mb 63f
3:00pm 21 22 mph 1015mb 65f
2:00pm 22 24 mph 1015.9mb 62f
1:00pm 22 23 mph 1016.3mb 62f
12:00pm 23 24 mph 1016.7mb 61f
11:00am 21 22 mph 1017.5mb 61f
10:00am 22 23 mph 1018.3mb 61f
9:00am 18 20 mph 1017.7mb 58f
8:00am 8 9 mph 1017.4mb 58f
7:00am 1 2 mph 1017mb -
6:00am 3 3 mph 1016.8mb -
5:00am 15 16 mph 1016.7mb 57f
4:00am 21 22 mph 1016.9mb 58f
3:00am 24 25 mph 1017.4mb 60f
2:00am 23 25 mph 1017.8mb 60f
1:00am 22 22 mph 1017.9mb 60f
12:00am 17 18 mph 1018mb 60f
Wed 11/22 11:00pm 22 23 mph 1018.4mb 61f
10:00pm 22 22 mph 1018.4mb 62f
9:00pm 24 25 mph 1018.6mb 61f
8:00pm 23 24 mph 1018.2mb 61f
7:00pm 22 24 mph 1017.8mb 62f
6:00pm 26 28 mph 1017.5mb 62f
5:00pm 23 24 mph 1017.5mb 63f
4:00pm 17 18 mph 1016.9mb 66f
3:00pm 18 20 mph 1017.3mb 66f
2:00pm 16 18 mph 1017.8mb 64f
1:00pm 10 11 mph 1017.9mb 62f
12:00pm 8 8 mph 1018.3mb 62f
11:00am 8 8 mph 1018.8mb 63f
10:00am 8 9 mph 1019.1mb -
9:00am  -  1 mph 1018.7mb 73f
8:00am  -  1 mph 1018.9mb 68f
7:00am 5 6 mph 1018.1mb 66f
6:00am 14 16 mph 1017.8mb 62f
5:00am 23 25 mph 1017.2mb 58f
4:00am 16 20 mph 1017.2mb 59f
3:00am 11 14 mph 1017.5mb 64f
2:00am 11 13 mph 1017.6mb 59f
1:00am 20 20 mph 1018.1mb 63f
12:00am 17 18 mph 1018.9mb 60f
Tue 11/21 9:00pm 15 16 mph 1018.6mb 65f
8:00pm 16 16 mph 1018.3mb 66f
7:00pm 16 18 mph 1018mb 65f
6:00pm 9 10 mph 1017.5mb 67f
5:00pm 9 11 mph 1017.1mb 64f
4:00pm 7 8 mph 1017mb 67f
3:00pm 10 10 mph 1017mb 64f
2:00pm 8 8 mph 1017.2mb 63f
1:00pm 5 6 mph 1017.6mb 64f
12:00pm 7 7 mph 1018.6mb 62f
11:00am 8 8 mph 1019.5mb 63f
10:00am 8 10 mph 1020.1mb 63f
9:00am 9 10 mph 1019.7mb 64f
8:00am 7 8 mph 1019.1mb 67f
7:00am 5 5 mph 1018.3mb 68f
6:00am 2 2 mph 1017.4mb 69f
5:00am 3 5 mph 1016.9mb 68f
4:00am 5 6 mph 1016.6mb 65f
3:00am 3 5 mph 1016.8mb 68f
2:00am 15 16 mph 1016.8mb 61f
1:00am 8 10 mph 1017.1mb 61f
12:00am 14 15 mph 1017.2mb 64f
Mon 11/20 11:00pm 14 15 mph 1017.6mb 60f
10:00pm 13 16 mph 1017.8mb 60f